sensor_id;sensor_type;location;lat;lon;timestamp;P1;durP1;ratioP1;P2;durP2;ratioP2
13311;SDS011;34033;48.672;9.376;2023-03-01T00:01:27;11.20;;;6.87;;
13311;SDS011;34033;48.672;9.376;2023-03-01T00:03:54;9.47;;;6.47;;
13311;SDS011;34033;48.672;9.376;2023-03-01T00:06:21;9.93;;;5.80;;
13311;SDS011;34033;48.672;9.376;2023-03-01T00:08:46;9.17;;;6.33;;
13311;SDS011;34033;48.672;9.376;2023-03-01T00:11:13;10.03;;;6.47;;
13311;SDS011;34033;48.672;9.376;2023-03-01T00:13:44;7.90;;;5.70;;
13311;SDS011;34033;48.672;9.376;2023-03-01T00:16:14;8.83;;;5.77;;
13311;SDS011;34033;48.672;9.376;2023-03-01T00:18:41;9.60;;;5.13;;
13311;SDS011;34033;48.672;9.376;2023-03-01T00:21:07;7.47;;;5.40;;
13311;SDS011;34033;48.672;9.376;2023-03-01T00:23:36;8.63;;;5.40;;
13311;SDS011;34033;48.672;9.376;2023-03-01T00:26:05;7.97;;;5.53;;
13311;SDS011;34033;48.672;9.376;2023-03-01T00:28:32;9.93;;;6.27;;
13311;SDS011;34033;48.672;9.376;2023-03-01T00:31:02;9.33;;;5.90;;
13311;SDS011;34033;48.672;9.376;2023-03-01T00:33:32;8.50;;;5.60;;
13311;SDS011;34033;48.672;9.376;2023-03-01T00:35:58;10.30;;;6.07;;
13311;SDS011;34033;48.672;9.376;2023-03-01T00:38:23;13.40;;;6.43;;
13311;SDS011;34033;48.672;9.376;2023-03-01T00:40:49;7.70;;;5.50;;
13311;SDS011;34033;48.672;9.376;2023-03-01T00:43:14;9.00;;;4.97;;
13311;SDS011;34033;48.672;9.376;2023-03-01T00:45:39;7.50;;;4.63;;
13311;SDS011;34033;48.672;9.376;2023-03-01T00:48:05;7.67;;;4.97;;
13311;SDS011;34033;48.672;9.376;2023-03-01T00:50:30;9.50;;;5.37;;
13311;SDS011;34033;48.672;9.376;2023-03-01T00:52:56;7.63;;;5.33;;
13311;SDS011;34033;48.672;9.376;2023-03-01T00:55:21;8.50;;;5.43;;
13311;SDS011;34033;48.672;9.376;2023-03-01T00:57:47;9.73;;;6.07;;
13311;SDS011;34033;48.672;9.376;2023-03-01T01:00:13;8.93;;;6.47;;
13311;SDS011;34033;48.672;9.376;2023-03-01T01:02:38;12.60;;;6.73;;
13311;SDS011;34033;48.672;9.376;2023-03-01T01:05:04;13.13;;;5.97;;
13311;SDS011;34033;48.672;9.376;2023-03-01T01:07:29;12.93;;;7.10;;
13311;SDS011;34033;48.672;9.376;2023-03-01T01:09:55;10.27;;;5.93;;
13311;SDS011;34033;48.672;9.376;2023-03-01T01:12:20;9.23;;;6.20;;
13311;SDS011;34033;48.672;9.376;2023-03-01T01:14:46;12.60;;;6.33;;
13311;SDS011;34033;48.672;9.376;2023-03-01T01:17:11;10.17;;;6.10;;
13311;SDS011;34033;48.672;9.376;2023-03-01T01:19:37;8.30;;;5.77;;
13311;SDS011;34033;48.672;9.376;2023-03-01T01:22:02;9.20;;;6.07;;
13311;SDS011;34033;48.672;9.376;2023-03-01T01:24:28;11.03;;;6.03;;
13311;SDS011;34033;48.672;9.376;2023-03-01T01:26:53;9.03;;;5.33;;
13311;SDS011;34033;48.672;9.376;2023-03-01T01:29:19;7.60;;;5.77;;
13311;SDS011;34033;48.672;9.376;2023-03-01T01:31:44;9.90;;;6.17;;
13311;SDS011;34033;48.672;9.376;2023-03-01T01:34:14;9.07;;;5.70;;
13311;SDS011;34033;48.672;9.376;2023-03-01T01:36:41;11.97;;;6.00;;
13311;SDS011;34033;48.672;9.376;2023-03-01T01:39:06;11.47;;;5.97;;
13311;SDS011;34033;48.672;9.376;2023-03-01T01:41:32;9.37;;;6.30;;
13311;SDS011;34033;48.672;9.376;2023-03-01T01:49:30;15.90;;;7.07;;
13311;SDS011;34033;48.672;9.376;2023-03-01T01:52:01;16.87;;;6.87;;
13311;SDS011;34033;48.672;9.376;2023-03-01T01:57:21;8.77;;;5.23;;
13311;SDS011;34033;48.672;9.376;2023-03-01T01:59:52;7.27;;;4.87;;
13311;SDS011;34033;48.672;9.376;2023-03-01T02:02:22;7.77;;;5.20;;
13311;SDS011;34033;48.672;9.376;2023-03-01T02:04:48;7.57;;;5.37;;
13311;SDS011;34033;48.672;9.376;2023-03-01T02:07:18;8.27;;;4.90;;
13311;SDS011;34033;48.672;9.376;2023-03-01T02:09:47;11.10;;;5.57;;
13311;SDS011;34033;48.672;9.376;2023-03-01T02:12:16;6.67;;;5.00;;
13311;SDS011;34033;48.672;9.376;2023-03-01T02:14:45;7.20;;;5.33;;
13311;SDS011;34033;48.672;9.376;2023-03-01T02:17:11;7.03;;;4.70;;
13311;SDS011;34033;48.672;9.376;2023-03-01T02:19:47;7.03;;;5.13;;
13311;SDS011;34033;48.672;9.376;2023-03-01T02:22:32;12.07;;;5.43;;
13311;SDS011;34033;48.672;9.376;2023-03-01T02:30:20;7.40;;;5.37;;
13311;SDS011;34033;48.672;9.376;2023-03-01T02:32:47;6.87;;;4.87;;
13311;SDS011;34033;48.672;9.376;2023-03-01T02:35:14;8.57;;;5.33;;
13311;SDS011;34033;48.672;9.376;2023-03-01T02:37:41;7.90;;;5.30;;
13311;SDS011;34033;48.672;9.376;2023-03-01T02:40:10;7.20;;;4.77;;
13311;SDS011;34033;48.672;9.376;2023-03-01T02:42:41;7.60;;;4.97;;
13311;SDS011;34033;48.672;9.376;2023-03-01T02:45:13;7.80;;;5.60;;
13311;SDS011;34033;48.672;9.376;2023-03-01T02:47:39;8.23;;;4.70;;
13311;SDS011;34033;48.672;9.376;2023-03-01T02:50:10;6.57;;;4.87;;
13311;SDS011;34033;48.672;9.376;2023-03-01T02:55:28;6.63;;;4.60;;
13311;SDS011;34033;48.672;9.376;2023-03-01T02:57:53;6.83;;;4.57;;
13311;SDS011;34033;48.672;9.376;2023-03-01T03:00:22;6.67;;;4.43;;
13311;SDS011;34033;48.672;9.376;2023-03-01T03:02:52;6.17;;;4.60;;
13311;SDS011;34033;48.672;9.376;2023-03-01T03:05:19;5.70;;;4.20;;
13311;SDS011;34033;48.672;9.376;2023-03-01T03:07:47;9.13;;;4.77;;
13311;SDS011;34033;48.672;9.376;2023-03-01T03:10:15;5.47;;;3.90;;
13311;SDS011;34033;48.672;9.376;2023-03-01T03:12:44;7.93;;;4.50;;
13311;SDS011;34033;48.672;9.376;2023-03-01T03:15:13;5.83;;;3.90;;
13311;SDS011;34033;48.672;9.376;2023-03-01T03:17:40;7.17;;;4.53;;
13311;SDS011;34033;48.672;9.376;2023-03-01T03:20:07;7.10;;;4.83;;
13311;SDS011;34033;48.672;9.376;2023-03-01T03:22:36;6.20;;;4.17;;
13311;SDS011;34033;48.672;9.376;2023-03-01T03:25:05;8.10;;;5.17;;
13311;SDS011;34033;48.672;9.376;2023-03-01T03:27:35;6.27;;;4.40;;
13311;SDS011;34033;48.672;9.376;2023-03-01T03:30:05;7.10;;;4.70;;
13311;SDS011;34033;48.672;9.376;2023-03-01T03:32:34;9.23;;;5.20;;
13311;SDS011;34033;48.672;9.376;2023-03-01T03:35:00;5.43;;;4.33;;
13311;SDS011;34033;48.672;9.376;2023-03-01T03:37:26;7.07;;;4.83;;
13311;SDS011;34033;48.672;9.376;2023-03-01T03:40:10;7.70;;;5.00;;
13311;SDS011;34033;48.672;9.376;2023-03-01T03:42:40;5.40;;;4.30;;
13311;SDS011;34033;48.672;9.376;2023-03-01T03:45:06;7.27;;;4.73;;
13311;SDS011;34033;48.672;9.376;2023-03-01T03:47:31;5.50;;;4.13;;
13311;SDS011;34033;48.672;9.376;2023-03-01T03:49:57;5.50;;;4.63;;
13311;SDS011;34033;48.672;9.376;2023-03-01T03:52:22;6.50;;;4.43;;
13311;SDS011;34033;48.672;9.376;2023-03-01T03:54:47;7.97;;;4.80;;
13311;SDS011;34033;48.672;9.376;2023-03-01T03:57:12;6.67;;;4.50;;
13311;SDS011;34033;48.672;9.376;2023-03-01T03:59:38;7.33;;;4.87;;
13311;SDS011;34033;48.672;9.376;2023-03-01T04:02:03;8.90;;;4.17;;
13311;SDS011;34033;48.672;9.376;2023-03-01T04:04:28;6.07;;;4.37;;
13311;SDS011;34033;48.672;9.376;2023-03-01T04:06:54;6.37;;;4.87;;
13311;SDS011;34033;48.672;9.376;2023-03-01T04:09:19;6.67;;;4.57;;
13311;SDS011;34033;48.672;9.376;2023-03-01T04:11:44;7.27;;;4.67;;
13311;SDS011;34033;48.672;9.376;2023-03-01T04:14:10;8.23;;;4.77;;
13311;SDS011;34033;48.672;9.376;2023-03-01T04:16:35;6.43;;;4.80;;
13311;SDS011;34033;48.672;9.376;2023-03-01T04:19:00;7.57;;;5.07;;
13311;SDS011;34033;48.672;9.376;2023-03-01T04:21:26;5.80;;;4.27;;
13311;SDS011;34033;48.672;9.376;2023-03-01T04:23:51;6.00;;;4.37;;
13311;SDS011;34033;48.672;9.376;2023-03-01T04:26:17;8.53;;;5.30;;
13311;SDS011;34033;48.672;9.376;2023-03-01T04:28:43;6.97;;;5.00;;
13311;SDS011;34033;48.672;9.376;2023-03-01T04:31:11;7.10;;;5.20;;
13311;SDS011;34033;48.672;9.376;2023-03-01T04:33:44;7.43;;;4.97;;
13311;SDS011;34033;48.672;9.376;2023-03-01T04:36:12;6.07;;;4.60;;
13311;SDS011;34033;48.672;9.376;2023-03-01T04:38:39;8.67;;;5.10;;
13311;SDS011;34033;48.672;9.376;2023-03-01T04:41:06;6.77;;;4.43;;
13311;SDS011;34033;48.672;9.376;2023-03-01T04:43:34;8.23;;;5.60;;
13311;SDS011;34033;48.672;9.376;2023-03-01T04:46:01;6.77;;;4.90;;
13311;SDS011;34033;48.672;9.376;2023-03-01T04:48:28;6.03;;;4.67;;
13311;SDS011;34033;48.672;9.376;2023-03-01T04:50:53;6.80;;;5.03;;
13311;SDS011;34033;48.672;9.376;2023-03-01T04:53:18;6.33;;;4.43;;
13311;SDS011;34033;48.672;9.376;2023-03-01T04:55:44;8.00;;;5.47;;
13311;SDS011;34033;48.672;9.376;2023-03-01T04:58:09;8.13;;;5.00;;
13311;SDS011;34033;48.672;9.376;2023-03-01T05:00:34;8.50;;;5.60;;
13311;SDS011;34033;48.672;9.376;2023-03-01T05:03:00;8.77;;;5.73;;
13311;SDS011;34033;48.672;9.376;2023-03-01T05:05:27;10.43;;;5.53;;
13311;SDS011;34033;48.672;9.376;2023-03-01T05:07:56;7.77;;;5.00;;
13311;SDS011;34033;48.672;9.376;2023-03-01T05:10:23;7.93;;;5.43;;
13311;SDS011;34033;48.672;9.376;2023-03-01T05:12:50;7.13;;;5.10;;
13311;SDS011;34033;48.672;9.376;2023-03-01T05:15:17;8.53;;;4.63;;
13311;SDS011;34033;48.672;9.376;2023-03-01T05:17:43;7.13;;;5.40;;
13311;SDS011;34033;48.672;9.376;2023-03-01T05:20:08;6.87;;;5.07;;
13311;SDS011;34033;48.672;9.376;2023-03-01T05:22:35;9.47;;;6.13;;
13311;SDS011;34033;48.672;9.376;2023-03-01T05:25:00;10.90;;;5.80;;
13311;SDS011;34033;48.672;9.376;2023-03-01T05:27:26;10.43;;;6.13;;
13311;SDS011;34033;48.672;9.376;2023-03-01T05:29:52;8.30;;;5.73;;
13311;SDS011;34033;48.672;9.376;2023-03-01T05:32:17;9.30;;;5.27;;
13311;SDS011;34033;48.672;9.376;2023-03-01T05:34:43;8.60;;;5.23;;
13311;SDS011;34033;48.672;9.376;2023-03-01T05:37:09;7.37;;;5.33;;
13311;SDS011;34033;48.672;9.376;2023-03-01T05:39:34;7.90;;;5.73;;
13311;SDS011;34033;48.672;9.376;2023-03-01T05:42:00;10.50;;;6.30;;
13311;SDS011;34033;48.672;9.376;2023-03-01T05:44:26;7.20;;;5.47;;
13311;SDS011;34033;48.672;9.376;2023-03-01T05:46:53;7.33;;;5.30;;
13311;SDS011;34033;48.672;9.376;2023-03-01T05:49:18;7.43;;;5.60;;
13311;SDS011;34033;48.672;9.376;2023-03-01T05:51:47;7.57;;;5.83;;
13311;SDS011;34033;48.672;9.376;2023-03-01T05:54:14;10.17;;;6.33;;
13311;SDS011;34033;48.672;9.376;2023-03-01T05:56:40;8.20;;;5.50;;
13311;SDS011;34033;48.672;9.376;2023-03-01T05:59:06;8.73;;;5.67;;
13311;SDS011;34033;48.672;9.376;2023-03-01T06:01:32;8.13;;;6.27;;
13311;SDS011;34033;48.672;9.376;2023-03-01T06:03:58;8.30;;;5.67;;
13311;SDS011;34033;48.672;9.376;2023-03-01T06:06:24;9.60;;;6.57;;
13311;SDS011;34033;48.672;9.376;2023-03-01T06:08:50;9.77;;;6.30;;
13311;SDS011;34033;48.672;9.376;2023-03-01T06:11:16;8.17;;;6.13;;
13311;SDS011;34033;48.672;9.376;2023-03-01T06:13:42;11.17;;;6.57;;
13311;SDS011;34033;48.672;9.376;2023-03-01T06:16:08;9.13;;;6.60;;
13311;SDS011;34033;48.672;9.376;2023-03-01T06:18:34;9.63;;;6.60;;
13311;SDS011;34033;48.672;9.376;2023-03-01T06:21:00;8.33;;;6.30;;
13311;SDS011;34033;48.672;9.376;2023-03-01T06:23:25;12.60;;;7.47;;
13311;SDS011;34033;48.672;9.376;2023-03-01T06:25:51;11.57;;;7.77;;
13311;SDS011;34033;48.672;9.376;2023-03-01T06:28:17;9.37;;;7.30;;
13311;SDS011;34033;48.672;9.376;2023-03-01T06:30:42;11.70;;;7.27;;
13311;SDS011;34033;48.672;9.376;2023-03-01T06:33:08;10.23;;;7.50;;
13311;SDS011;34033;48.672;9.376;2023-03-01T06:35:33;10.73;;;7.37;;
13311;SDS011;34033;48.672;9.376;2023-03-01T06:37:59;9.23;;;6.77;;
13311;SDS011;34033;48.672;9.376;2023-03-01T06:40:26;10.63;;;6.93;;
13311;SDS011;34033;48.672;9.376;2023-03-01T06:42:52;9.00;;;6.50;;
13311;SDS011;34033;48.672;9.376;2023-03-01T06:45:18;11.77;;;7.40;;
13311;SDS011;34033;48.672;9.376;2023-03-01T06:47:44;8.97;;;6.00;;
13311;SDS011;34033;48.672;9.376;2023-03-01T06:50:09;11.63;;;6.77;;
13311;SDS011;34033;48.672;9.376;2023-03-01T06:52:37;11.77;;;7.27;;
13311;SDS011;34033;48.672;9.376;2023-03-01T06:55:02;11.47;;;7.30;;
13311;SDS011;34033;48.672;9.376;2023-03-01T06:57:28;10.40;;;7.13;;
13311;SDS011;34033;48.672;9.376;2023-03-01T06:59:54;12.50;;;6.80;;
13311;SDS011;34033;48.672;9.376;2023-03-01T07:02:19;10.77;;;6.83;;
13311;SDS011;34033;48.672;9.376;2023-03-01T07:04:44;11.50;;;7.27;;
13311;SDS011;34033;48.672;9.376;2023-03-01T07:07:10;9.80;;;6.83;;
13311;SDS011;34033;48.672;9.376;2023-03-01T07:09:36;8.57;;;6.70;;
13311;SDS011;34033;48.672;9.376;2023-03-01T07:12:01;9.50;;;7.07;;
13311;SDS011;34033;48.672;9.376;2023-03-01T07:14:27;10.23;;;6.40;;
13311;SDS011;34033;48.672;9.376;2023-03-01T07:16:52;12.47;;;6.93;;
13311;SDS011;34033;48.672;9.376;2023-03-01T07:19:18;8.80;;;6.13;;
13311;SDS011;34033;48.672;9.376;2023-03-01T07:21:44;8.67;;;6.07;;
13311;SDS011;34033;48.672;9.376;2023-03-01T07:24:09;10.43;;;6.60;;
13311;SDS011;34033;48.672;9.376;2023-03-01T07:26:35;7.70;;;5.93;;
13311;SDS011;34033;48.672;9.376;2023-03-01T07:29:02;10.33;;;6.73;;
13311;SDS011;34033;48.672;9.376;2023-03-01T07:31:29;9.03;;;6.40;;
13311;SDS011;34033;48.672;9.376;2023-03-01T07:33:54;9.93;;;6.47;;
13311;SDS011;34033;48.672;9.376;2023-03-01T07:36:20;7.50;;;6.00;;
13311;SDS011;34033;48.672;9.376;2023-03-01T07:38:46;10.37;;;6.20;;
13311;SDS011;34033;48.672;9.376;2023-03-01T07:41:11;8.23;;;6.00;;
13311;SDS011;34033;48.672;9.376;2023-03-01T07:43:37;8.30;;;6.17;;
13311;SDS011;34033;48.672;9.376;2023-03-01T07:46:03;7.27;;;5.70;;
13311;SDS011;34033;48.672;9.376;2023-03-01T07:48:29;8.73;;;6.47;;
13311;SDS011;34033;48.672;9.376;2023-03-01T07:50:57;9.17;;;6.03;;
13311;SDS011;34033;48.672;9.376;2023-03-01T07:53:26;9.93;;;6.33;;
13311;SDS011;34033;48.672;9.376;2023-03-01T07:56:06;9.67;;;6.13;;
13311;SDS011;34033;48.672;9.376;2023-03-01T07:58:36;9.60;;;6.70;;
13311;SDS011;34033;48.672;9.376;2023-03-01T08:01:05;8.70;;;6.30;;
13311;SDS011;34033;48.672;9.376;2023-03-01T08:03:32;9.67;;;6.27;;
13311;SDS011;34033;48.672;9.376;2023-03-01T08:06:08;8.83;;;6.77;;
13311;SDS011;34033;48.672;9.376;2023-03-01T08:08:34;9.53;;;6.23;;
13311;SDS011;34033;48.672;9.376;2023-03-01T08:11:00;7.23;;;5.93;;
13311;SDS011;34033;48.672;9.376;2023-03-01T08:13:27;9.50;;;6.50;;
13311;SDS011;34033;48.672;9.376;2023-03-01T08:15:54;8.77;;;6.17;;
13311;SDS011;34033;48.672;9.376;2023-03-01T08:18:19;9.87;;;6.80;;
13311;SDS011;34033;48.672;9.376;2023-03-01T08:20:45;9.50;;;6.70;;
13311;SDS011;34033;48.672;9.376;2023-03-01T08:23:11;8.07;;;6.00;;
13311;SDS011;34033;48.672;9.376;2023-03-01T08:25:36;10.17;;;6.70;;
13311;SDS011;34033;48.672;9.376;2023-03-01T08:28:02;8.10;;;6.00;;
13311;SDS011;34033;48.672;9.376;2023-03-01T08:30:27;8.80;;;6.20;;
13311;SDS011;34033;48.672;9.376;2023-03-01T08:32:53;10.37;;;6.87;;
13311;SDS011;34033;48.672;9.376;2023-03-01T08:35:19;9.10;;;6.80;;
13311;SDS011;34033;48.672;9.376;2023-03-01T08:37:45;9.67;;;6.50;;
13311;SDS011;34033;48.672;9.376;2023-03-01T08:40:10;9.40;;;6.50;;
13311;SDS011;34033;48.672;9.376;2023-03-01T08:42:38;9.57;;;6.30;;
13311;SDS011;34033;48.672;9.376;2023-03-01T08:45:04;8.70;;;6.30;;
13311;SDS011;34033;48.672;9.376;2023-03-01T08:47:30;9.13;;;7.17;;
13311;SDS011;34033;48.672;9.376;2023-03-01T08:49:55;9.63;;;6.60;;
13311;SDS011;34033;48.672;9.376;2023-03-01T08:52:21;9.67;;;6.50;;
13311;SDS011;34033;48.672;9.376;2023-03-01T08:54:49;8.43;;;6.10;;
13311;SDS011;34033;48.672;9.376;2023-03-01T08:57:14;9.97;;;6.40;;
13311;SDS011;34033;48.672;9.376;2023-03-01T08:59:40;11.00;;;6.97;;
13311;SDS011;34033;48.672;9.376;2023-03-01T09:02:08;8.40;;;6.53;;
13311;SDS011;34033;48.672;9.376;2023-03-01T09:04:37;8.23;;;6.43;;
13311;SDS011;34033;48.672;9.376;2023-03-01T09:07:03;9.23;;;6.60;;
13311;SDS011;34033;48.672;9.376;2023-03-01T09:09:28;8.37;;;6.47;;
13311;SDS011;34033;48.672;9.376;2023-03-01T09:11:54;8.47;;;6.03;;
13311;SDS011;34033;48.672;9.376;2023-03-01T09:14:19;10.77;;;6.87;;
13311;SDS011;34033;48.672;9.376;2023-03-01T09:16:45;9.47;;;6.47;;
13311;SDS011;34033;48.672;9.376;2023-03-01T09:19:11;8.13;;;6.50;;
13311;SDS011;34033;48.672;9.376;2023-03-01T09:21:36;11.73;;;6.13;;
13311;SDS011;34033;48.672;9.376;2023-03-01T09:24:02;9.83;;;6.53;;
13311;SDS011;34033;48.672;9.376;2023-03-01T09:26:27;10.43;;;6.47;;
13311;SDS011;34033;48.672;9.376;2023-03-01T09:28:53;11.13;;;6.70;;
13311;SDS011;34033;48.672;9.376;2023-03-01T09:31:21;10.23;;;7.40;;
13311;SDS011;34033;48.672;9.376;2023-03-01T09:33:48;10.23;;;6.77;;
13311;SDS011;34033;48.672;9.376;2023-03-01T09:36:16;10.53;;;7.03;;
13311;SDS011;34033;48.672;9.376;2023-03-01T09:38:43;8.60;;;6.43;;
13311;SDS011;34033;48.672;9.376;2023-03-01T09:41:10;9.13;;;6.83;;
13311;SDS011;34033;48.672;9.376;2023-03-01T09:43:51;9.50;;;6.73;;
13311;SDS011;34033;48.672;9.376;2023-03-01T09:46:21;8.20;;;6.43;;
13311;SDS011;34033;48.672;9.376;2023-03-01T09:48:50;9.50;;;6.90;;
13311;SDS011;34033;48.672;9.376;2023-03-01T09:51:29;10.33;;;7.07;;
13311;SDS011;34033;48.672;9.376;2023-03-01T09:53:56;10.83;;;6.70;;
13311;SDS011;34033;48.672;9.376;2023-03-01T09:59:25;8.27;;;6.67;;
13311;SDS011;34033;48.672;9.376;2023-03-01T10:02:05;13.17;;;7.50;;
13311;SDS011;34033;48.672;9.376;2023-03-01T10:04:50;10.07;;;7.03;;
13311;SDS011;34033;48.672;9.376;2023-03-01T10:07:32;11.80;;;6.70;;
13311;SDS011;34033;48.672;9.376;2023-03-01T10:10:02;8.90;;;6.50;;
13311;SDS011;34033;48.672;9.376;2023-03-01T10:12:35;9.70;;;7.00;;
13311;SDS011;34033;48.672;9.376;2023-03-01T10:17:37;10.47;;;6.40;;
13311;SDS011;34033;48.672;9.376;2023-03-01T10:20:15;10.03;;;6.50;;
13311;SDS011;34033;48.672;9.376;2023-03-01T10:22:49;8.93;;;6.33;;
13311;SDS011;34033;48.672;9.376;2023-03-01T10:26:07;13.23;;;7.43;;
13311;SDS011;34033;48.672;9.376;2023-03-01T10:28:10;10.10;;;6.50;;
13311;SDS011;34033;48.672;9.376;2023-03-01T10:30:59;9.83;;;7.10;;
13311;SDS011;34033;48.672;9.376;2023-03-01T10:33:26;9.03;;;6.93;;
13311;SDS011;34033;48.672;9.376;2023-03-01T10:35:54;9.30;;;6.40;;
13311;SDS011;34033;48.672;9.376;2023-03-01T10:38:20;12.70;;;7.80;;
13311;SDS011;34033;48.672;9.376;2023-03-01T10:40:50;8.03;;;6.57;;
13311;SDS011;34033;48.672;9.376;2023-03-01T10:43:23;7.73;;;6.37;;
13311;SDS011;34033;48.672;9.376;2023-03-01T10:45:50;12.80;;;6.83;;
13311;SDS011;34033;48.672;9.376;2023-03-01T10:50:49;10.73;;;6.93;;
13311;SDS011;34033;48.672;9.376;2023-03-01T10:56:09;8.50;;;6.20;;
13311;SDS011;34033;48.672;9.376;2023-03-01T10:58:38;9.83;;;6.80;;
13311;SDS011;34033;48.672;9.376;2023-03-01T11:03:40;8.27;;;6.40;;
13311;SDS011;34033;48.672;9.376;2023-03-01T11:08:43;10.77;;;6.37;;
13311;SDS011;34033;48.672;9.376;2023-03-01T11:11:14;7.87;;;6.00;;
13311;SDS011;34033;48.672;9.376;2023-03-01T11:16:22;6.17;;;5.43;;
13311;SDS011;34033;48.672;9.376;2023-03-01T11:18:57;9.07;;;6.03;;
13311;SDS011;34033;48.672;9.376;2023-03-01T11:21:30;10.47;;;6.83;;
13311;SDS011;34033;48.672;9.376;2023-03-01T11:24:00;8.03;;;6.10;;
13311;SDS011;34033;48.672;9.376;2023-03-01T11:26:27;8.37;;;6.37;;
13311;SDS011;34033;48.672;9.376;2023-03-01T11:28:55;8.33;;;6.00;;
13311;SDS011;34033;48.672;9.376;2023-03-01T11:31:23;9.30;;;6.67;;
13311;SDS011;34033;48.672;9.376;2023-03-01T11:33:58;7.43;;;6.07;;
13311;SDS011;34033;48.672;9.376;2023-03-01T11:36:35;9.70;;;6.07;;
13311;SDS011;34033;48.672;9.376;2023-03-01T11:39:03;8.40;;;5.90;;
13311;SDS011;34033;48.672;9.376;2023-03-01T11:41:39;8.53;;;6.43;;
13311;SDS011;34033;48.672;9.376;2023-03-01T11:44:20;9.00;;;6.37;;
13311;SDS011;34033;48.672;9.376;2023-03-01T11:58:38;8.83;;;6.13;;
13311;SDS011;34033;48.672;9.376;2023-03-01T12:01:24;8.07;;;6.33;;
13311;SDS011;34033;48.672;9.376;2023-03-01T12:20:37;8.30;;;6.20;;
13311;SDS011;34033;48.672;9.376;2023-03-01T12:28:56;7.53;;;6.37;;
13311;SDS011;34033;48.672;9.376;2023-03-01T12:31:47;8.13;;;5.97;;
13311;SDS011;34033;48.672;9.376;2023-03-01T12:50:51;7.13;;;5.93;;
13311;SDS011;34033;48.672;9.376;2023-03-01T12:53:31;7.73;;;6.20;;
13311;SDS011;34033;48.672;9.376;2023-03-01T12:56:01;8.57;;;5.77;;
13311;SDS011;34033;48.672;9.376;2023-03-01T13:01:44;8.43;;;5.43;;
13311;SDS011;34033;48.672;9.376;2023-03-01T13:04:37;9.00;;;6.10;;
13311;SDS011;34033;48.672;9.376;2023-03-01T13:07:24;9.60;;;6.70;;
13311;SDS011;34033;48.672;9.376;2023-03-01T13:17:47;8.33;;;6.63;;
13311;SDS011;34033;48.672;9.376;2023-03-01T13:20:19;11.37;;;6.70;;
13311;SDS011;34033;48.672;9.376;2023-03-01T13:22:46;8.43;;;6.50;;
13311;SDS011;34033;48.672;9.376;2023-03-01T13:27:40;9.10;;;6.57;;
13311;SDS011;34033;48.672;9.376;2023-03-01T13:30:12;9.63;;;6.43;;
13311;SDS011;34033;48.672;9.376;2023-03-01T13:35:48;7.93;;;6.67;;
13311;SDS011;34033;48.672;9.376;2023-03-01T13:38:48;8.83;;;6.87;;
13311;SDS011;34033;48.672;9.376;2023-03-01T13:41:06;11.10;;;6.57;;
13311;SDS011;34033;48.672;9.376;2023-03-01T13:43:33;8.97;;;6.33;;
13311;SDS011;34033;48.672;9.376;2023-03-01T13:46:02;8.80;;;6.00;;
13311;SDS011;34033;48.672;9.376;2023-03-01T13:48:44;7.13;;;6.37;;
13311;SDS011;34033;48.672;9.376;2023-03-01T13:51:13;8.57;;;6.20;;
13311;SDS011;34033;48.672;9.376;2023-03-01T13:53:40;7.10;;;5.53;;
13311;SDS011;34033;48.672;9.376;2023-03-01T13:56:14;9.20;;;6.03;;
13311;SDS011;34033;48.672;9.376;2023-03-01T14:01:24;9.50;;;5.60;;
13311;SDS011;34033;48.672;9.376;2023-03-01T14:03:51;8.93;;;6.03;;
13311;SDS011;34033;48.672;9.376;2023-03-01T14:06:18;7.70;;;5.63;;
13311;SDS011;34033;48.672;9.376;2023-03-01T14:08:47;9.63;;;6.47;;
13311;SDS011;34033;48.672;9.376;2023-03-01T14:11:28;9.07;;;6.60;;
13311;SDS011;34033;48.672;9.376;2023-03-01T14:17:07;8.13;;;5.87;;
13311;SDS011;34033;48.672;9.376;2023-03-01T14:19:35;7.87;;;5.73;;
13311;SDS011;34033;48.672;9.376;2023-03-01T14:24:55;8.63;;;6.20;;
13311;SDS011;34033;48.672;9.376;2023-03-01T14:27:23;8.23;;;6.23;;
13311;SDS011;34033;48.672;9.376;2023-03-01T14:32:30;6.67;;;5.57;;
13311;SDS011;34033;48.672;9.376;2023-03-01T14:34:57;5.97;;;4.77;;
13311;SDS011;34033;48.672;9.376;2023-03-01T14:37:28;10.13;;;6.40;;
13311;SDS011;34033;48.672;9.376;2023-03-01T14:39:56;8.10;;;6.30;;
13311;SDS011;34033;48.672;9.376;2023-03-01T14:42:23;9.17;;;6.83;;
13311;SDS011;34033;48.672;9.376;2023-03-01T14:44:52;8.93;;;6.47;;
13311;SDS011;34033;48.672;9.376;2023-03-01T14:47:29;9.70;;;7.10;;
13311;SDS011;34033;48.672;9.376;2023-03-01T14:49:58;8.93;;;6.93;;
13311;SDS011;34033;48.672;9.376;2023-03-01T14:52:25;8.90;;;6.93;;
13311;SDS011;34033;48.672;9.376;2023-03-01T14:54:58;7.93;;;6.70;;
13311;SDS011;34033;48.672;9.376;2023-03-01T14:57:25;8.37;;;6.20;;
13311;SDS011;34033;48.672;9.376;2023-03-01T14:59:52;9.80;;;7.17;;
13311;SDS011;34033;48.672;9.376;2023-03-01T15:02:20;8.90;;;6.53;;
13311;SDS011;34033;48.672;9.376;2023-03-01T15:04:51;5.43;;;3.90;;
13311;SDS011;34033;48.672;9.376;2023-03-01T15:07:19;9.93;;;7.30;;
13311;SDS011;34033;48.672;9.376;2023-03-01T15:09:44;9.20;;;6.23;;
13311;SDS011;34033;48.672;9.376;2023-03-01T15:15:01;6.87;;;5.30;;
13311;SDS011;34033;48.672;9.376;2023-03-01T15:17:43;8.83;;;6.50;;
13311;SDS011;34033;48.672;9.376;2023-03-01T15:20:16;10.67;;;7.00;;
13311;SDS011;34033;48.672;9.376;2023-03-01T15:22:46;7.97;;;6.30;;
13311;SDS011;34033;48.672;9.376;2023-03-01T15:25:16;10.43;;;7.17;;
13311;SDS011;34033;48.672;9.376;2023-03-01T15:27:47;8.33;;;6.00;;
13311;SDS011;34033;48.672;9.376;2023-03-01T15:30:22;9.40;;;6.87;;
13311;SDS011;34033;48.672;9.376;2023-03-01T15:33:15;7.93;;;6.17;;
13311;SDS011;34033;48.672;9.376;2023-03-01T15:35:45;9.03;;;6.83;;
13311;SDS011;34033;48.672;9.376;2023-03-01T15:41:04;8.83;;;6.10;;
13311;SDS011;34033;48.672;9.376;2023-03-01T15:43:38;9.40;;;6.70;;
13311;SDS011;34033;48.672;9.376;2023-03-01T15:46:11;9.03;;;6.20;;
13311;SDS011;34033;48.672;9.376;2023-03-01T15:48:46;9.33;;;6.40;;
13311;SDS011;34033;48.672;9.376;2023-03-01T15:51:14;9.03;;;6.37;;
13311;SDS011;34033;48.672;9.376;2023-03-01T15:53:40;8.07;;;6.10;;
13311;SDS011;34033;48.672;9.376;2023-03-01T15:56:06;8.13;;;6.50;;
13311;SDS011;34033;48.672;9.376;2023-03-01T15:58:32;7.87;;;6.30;;
13311;SDS011;34033;48.672;9.376;2023-03-01T16:00:57;8.30;;;6.57;;
13311;SDS011;34033;48.672;9.376;2023-03-01T16:03:23;9.57;;;6.13;;
13311;SDS011;34033;48.672;9.376;2023-03-01T16:05:49;8.90;;;5.97;;
13311;SDS011;34033;48.672;9.376;2023-03-01T16:08:15;8.80;;;6.37;;
13311;SDS011;34033;48.672;9.376;2023-03-01T16:10:42;7.87;;;5.87;;
13311;SDS011;34033;48.672;9.376;2023-03-01T16:13:08;9.63;;;6.20;;
13311;SDS011;34033;48.672;9.376;2023-03-01T16:15:34;9.00;;;6.10;;
13311;SDS011;34033;48.672;9.376;2023-03-01T16:18:00;8.60;;;6.17;;
13311;SDS011;34033;48.672;9.376;2023-03-01T16:20:26;8.50;;;6.20;;
13311;SDS011;34033;48.672;9.376;2023-03-01T16:22:52;9.27;;;6.50;;
13311;SDS011;34033;48.672;9.376;2023-03-01T16:25:19;8.37;;;6.00;;
13311;SDS011;34033;48.672;9.376;2023-03-01T16:27:47;8.93;;;6.80;;
13311;SDS011;34033;48.672;9.376;2023-03-01T16:30:14;8.43;;;6.60;;
13311;SDS011;34033;48.672;9.376;2023-03-01T16:32:41;8.90;;;6.10;;
13311;SDS011;34033;48.672;9.376;2023-03-01T16:35:09;9.60;;;6.70;;
13311;SDS011;34033;48.672;9.376;2023-03-01T16:37:36;9.33;;;6.00;;
13311;SDS011;34033;48.672;9.376;2023-03-01T16:40:03;6.67;;;5.57;;
13311;SDS011;34033;48.672;9.376;2023-03-01T16:42:33;7.33;;;6.20;;
13311;SDS011;34033;48.672;9.376;2023-03-01T16:44:59;8.77;;;6.17;;
13311;SDS011;34033;48.672;9.376;2023-03-01T16:47:26;7.27;;;5.57;;
13311;SDS011;34033;48.672;9.376;2023-03-01T16:49:52;9.17;;;5.93;;
13311;SDS011;34033;48.672;9.376;2023-03-01T16:52:18;7.77;;;5.73;;